Terminal Aerodrome Forecast
Issued by NWS Charleston, WV

Current Version | Previous Version | Graphics & Text | Print | Product List | Glossary On
Versions: 1 2 3 4 5 6 7 8 9 10 11 12 13 14 15 16 17 18 19 20 21 22 23 24 25 26 27 28 29 30 31
000
FTUS41 KRLX 281737
TAFBKW
TAF
KBKW 281737Z 2818/2918 26004KT 6SM SHRA VCTS SCT020 BKN040CB
     FM282000 25004KT 4SM SHRA BR SCT008 OVC025
      TEMPO 2820/2823 1 1/2SM TSRA BKN008 OVC015CB
     FM282300 25003KT 5SM SHRA BR VCTS SCT015 OVC025CB
     FM290400 VRB02KT 3SM SHRA BR SCT008 OVC015
     FM290700 00000KT 2SM BR OVC006
     FM290900 00000KT 1SM BR OVC003
     FM291300 00000KT 2SM BR SCT002 OVC006
     FM291400 00000KT 5SM BR BKN015
     FM291600 27003KT P6SM VCSH BKN025=

USA.gov is the U.S. government's official web portal to all federal, state and local government web resources and services.